sensor_id;sensor_type;location;lat;lon;timestamp;P1;durP1;ratioP1;P2;durP2;ratioP2
21727;SDS011;11026;50.560;17.852;2023-04-24T00:00:25;26.17;;;19.00;;
21727;SDS011;11026;50.560;17.852;2023-04-24T00:02:53;28.27;;;19.02;;
21727;SDS011;11026;50.560;17.852;2023-04-24T00:05:26;26.00;;;18.45;;
21727;SDS011;11026;50.560;17.852;2023-04-24T00:07:54;25.20;;;18.13;;
21727;SDS011;11026;50.560;17.852;2023-04-24T00:10:23;20.88;;;16.90;;
21727;SDS011;11026;50.560;17.852;2023-04-24T00:12:53;26.27;;;16.98;;
21727;SDS011;11026;50.560;17.852;2023-04-24T00:15:20;22.48;;;16.30;;
21727;SDS011;11026;50.560;17.852;2023-04-24T00:17:49;21.70;;;16.40;;
21727;SDS011;11026;50.560;17.852;2023-04-24T00:20:16;24.15;;;16.38;;
21727;SDS011;11026;50.560;17.852;2023-04-24T00:22:43;20.83;;;15.23;;
21727;SDS011;11026;50.560;17.852;2023-04-24T00:25:11;21.35;;;16.30;;
21727;SDS011;11026;50.560;17.852;2023-04-24T00:27:38;22.92;;;15.93;;
21727;SDS011;11026;50.560;17.852;2023-04-24T00:30:07;19.85;;;15.43;;
21727;SDS011;11026;50.560;17.852;2023-04-24T00:32:37;19.08;;;15.07;;
21727;SDS011;11026;50.560;17.852;2023-04-24T00:35:05;19.08;;;14.25;;
21727;SDS011;11026;50.560;17.852;2023-04-24T00:37:34;17.88;;;15.07;;
21727;SDS011;11026;50.560;17.852;2023-04-24T00:40:01;19.33;;;14.48;;
21727;SDS011;11026;50.560;17.852;2023-04-24T00:42:36;17.65;;;13.80;;
21727;SDS011;11026;50.560;17.852;2023-04-24T00:45:04;17.73;;;13.77;;
21727;SDS011;11026;50.560;17.852;2023-04-24T00:47:33;17.10;;;14.27;;
21727;SDS011;11026;50.560;17.852;2023-04-24T00:50:03;19.85;;;14.52;;
21727;SDS011;11026;50.560;17.852;2023-04-24T00:52:34;16.77;;;13.02;;
21727;SDS011;11026;50.560;17.852;2023-04-24T00:55:02;17.00;;;14.10;;
21727;SDS011;11026;50.560;17.852;2023-04-24T00:57:31;17.52;;;13.63;;
21727;SDS011;11026;50.560;17.852;2023-04-24T00:59:59;16.05;;;13.65;;
21727;SDS011;11026;50.560;17.852;2023-04-24T01:04:57;18.60;;;13.80;;
21727;SDS011;11026;50.560;17.852;2023-04-24T01:07:27;18.45;;;13.90;;
21727;SDS011;11026;50.560;17.852;2023-04-24T01:09:54;16.95;;;13.65;;
21727;SDS011;11026;50.560;17.852;2023-04-24T01:12:21;15.05;;;12.73;;
21727;SDS011;11026;50.560;17.852;2023-04-24T01:14:50;16.65;;;13.50;;
21727;SDS011;11026;50.560;17.852;2023-04-24T01:19:46;15.38;;;13.07;;
21727;SDS011;11026;50.560;17.852;2023-04-24T01:22:15;16.23;;;12.90;;
21727;SDS011;11026;50.560;17.852;2023-04-24T01:24:50;13.70;;;10.70;;
21727;SDS011;11026;50.560;17.852;2023-04-24T01:27:19;12.88;;;10.32;;
21727;SDS011;11026;50.560;17.852;2023-04-24T01:29:47;13.27;;;10.15;;
21727;SDS011;11026;50.560;17.852;2023-04-24T01:32:18;14.48;;;10.93;;
21727;SDS011;11026;50.560;17.852;2023-04-24T01:34:46;11.98;;;9.95;;
21727;SDS011;11026;50.560;17.852;2023-04-24T01:37:14;11.32;;;9.40;;
21727;SDS011;11026;50.560;17.852;2023-04-24T01:39:44;13.82;;;9.68;;
21727;SDS011;11026;50.560;17.852;2023-04-24T01:42:13;12.32;;;9.63;;
21727;SDS011;11026;50.560;17.852;2023-04-24T01:44:41;18.23;;;10.50;;
21727;SDS011;11026;50.560;17.852;2023-04-24T01:47:09;13.93;;;10.48;;
21727;SDS011;11026;50.560;17.852;2023-04-24T01:49:40;14.82;;;11.02;;
21727;SDS011;11026;50.560;17.852;2023-04-24T01:52:08;12.57;;;10.35;;
21727;SDS011;11026;50.560;17.852;2023-04-24T01:54:35;14.98;;;10.80;;
21727;SDS011;11026;50.560;17.852;2023-04-24T01:57:03;16.85;;;11.25;;
21727;SDS011;11026;50.560;17.852;2023-04-24T01:59:33;14.25;;;11.68;;
21727;SDS011;11026;50.560;17.852;2023-04-24T02:02:09;15.18;;;12.45;;
21727;SDS011;11026;50.560;17.852;2023-04-24T02:04:37;16.45;;;13.02;;
21727;SDS011;11026;50.560;17.852;2023-04-24T02:07:07;17.63;;;12.98;;
21727;SDS011;11026;50.560;17.852;2023-04-24T02:09:40;17.98;;;13.25;;
21727;SDS011;11026;50.560;17.852;2023-04-24T02:12:08;16.67;;;12.60;;
21727;SDS011;11026;50.560;17.852;2023-04-24T02:14:35;20.27;;;14.07;;
21727;SDS011;11026;50.560;17.852;2023-04-24T02:17:03;20.65;;;14.05;;
21727;SDS011;11026;50.560;17.852;2023-04-24T02:19:31;17.42;;;14.70;;
21727;SDS011;11026;50.560;17.852;2023-04-24T02:21:58;18.55;;;15.18;;
21727;SDS011;11026;50.560;17.852;2023-04-24T02:24:26;23.38;;;15.30;;
21727;SDS011;11026;50.560;17.852;2023-04-24T02:26:53;22.02;;;15.18;;
21727;SDS011;11026;50.560;17.852;2023-04-24T02:29:22;17.70;;;15.38;;
21727;SDS011;11026;50.560;17.852;2023-04-24T02:31:50;18.33;;;14.88;;
21727;SDS011;11026;50.560;17.852;2023-04-24T02:34:18;18.00;;;14.10;;
21727;SDS011;11026;50.560;17.852;2023-04-24T02:36:46;17.95;;;14.82;;
21727;SDS011;11026;50.560;17.852;2023-04-24T02:39:13;21.08;;;15.45;;
21727;SDS011;11026;50.560;17.852;2023-04-24T02:41:43;19.48;;;14.88;;
21727;SDS011;11026;50.560;17.852;2023-04-24T02:44:11;19.10;;;13.85;;
21727;SDS011;11026;50.560;17.852;2023-04-24T02:46:39;18.60;;;13.73;;
21727;SDS011;11026;50.560;17.852;2023-04-24T02:49:13;19.48;;;13.90;;
21727;SDS011;11026;50.560;17.852;2023-04-24T02:51:41;18.63;;;13.45;;
21727;SDS011;11026;50.560;17.852;2023-04-24T02:54:08;19.50;;;13.43;;
21727;SDS011;11026;50.560;17.852;2023-04-24T02:56:39;16.60;;;13.88;;
21727;SDS011;11026;50.560;17.852;2023-04-24T02:59:06;17.02;;;13.90;;
21727;SDS011;11026;50.560;17.852;2023-04-24T03:01:34;19.88;;;13.63;;
21727;SDS011;11026;50.560;17.852;2023-04-24T03:04:02;17.25;;;14.07;;
21727;SDS011;11026;50.560;17.852;2023-04-24T03:06:30;18.40;;;13.85;;
21727;SDS011;11026;50.560;17.852;2023-04-24T03:08:59;19.33;;;14.20;;
21727;SDS011;11026;50.560;17.852;2023-04-24T03:11:28;18.85;;;13.80;;
21727;SDS011;11026;50.560;17.852;2023-04-24T03:13:55;19.25;;;14.15;;
21727;SDS011;11026;50.560;17.852;2023-04-24T03:16:22;18.02;;;14.23;;
21727;SDS011;11026;50.560;17.852;2023-04-24T03:18:50;17.50;;;13.85;;
21727;SDS011;11026;50.560;17.852;2023-04-24T03:21:17;19.00;;;14.63;;
21727;SDS011;11026;50.560;17.852;2023-04-24T03:26:18;19.35;;;14.38;;
21727;SDS011;11026;50.560;17.852;2023-04-24T03:28:46;18.45;;;14.45;;
21727;SDS011;11026;50.560;17.852;2023-04-24T03:31:15;21.00;;;14.43;;
21727;SDS011;11026;50.560;17.852;2023-04-24T03:33:43;18.40;;;14.73;;
21727;SDS011;11026;50.560;17.852;2023-04-24T03:36:10;17.98;;;15.20;;
21727;SDS011;11026;50.560;17.852;2023-04-24T03:38:38;20.27;;;15.05;;
21727;SDS011;11026;50.560;17.852;2023-04-24T03:41:05;19.55;;;14.80;;
21727;SDS011;11026;50.560;17.852;2023-04-24T03:43:39;22.27;;;15.43;;
21727;SDS011;11026;50.560;17.852;2023-04-24T03:46:06;19.15;;;14.88;;
21727;SDS011;11026;50.560;17.852;2023-04-24T03:48:35;19.98;;;14.88;;
21727;SDS011;11026;50.560;17.852;2023-04-24T03:51:02;20.17;;;14.98;;
21727;SDS011;11026;50.560;17.852;2023-04-24T03:53:30;19.27;;;14.88;;
21727;SDS011;11026;50.560;17.852;2023-04-24T03:55:57;18.95;;;14.82;;
21727;SDS011;11026;50.560;17.852;2023-04-24T03:58:25;20.67;;;15.20;;
21727;SDS011;11026;50.560;17.852;2023-04-24T04:00:52;17.92;;;14.50;;
21727;SDS011;11026;50.560;17.852;2023-04-24T04:03:20;19.70;;;14.57;;
21727;SDS011;11026;50.560;17.852;2023-04-24T04:05:47;18.27;;;14.90;;
21727;SDS011;11026;50.560;17.852;2023-04-24T04:08:15;18.45;;;15.00;;
21727;SDS011;11026;50.560;17.852;2023-04-24T04:10:42;19.25;;;14.95;;
21727;SDS011;11026;50.560;17.852;2023-04-24T04:13:09;22.35;;;14.88;;
21727;SDS011;11026;50.560;17.852;2023-04-24T04:15:37;22.15;;;14.60;;
21727;SDS011;11026;50.560;17.852;2023-04-24T04:18:04;18.98;;;14.32;;
21727;SDS011;11026;50.560;17.852;2023-04-24T04:20:32;20.65;;;14.85;;
21727;SDS011;11026;50.560;17.852;2023-04-24T04:22:59;22.20;;;14.75;;
21727;SDS011;11026;50.560;17.852;2023-04-24T04:25:28;16.92;;;13.52;;
21727;SDS011;11026;50.560;17.852;2023-04-24T04:27:55;18.30;;;14.38;;
21727;SDS011;11026;50.560;17.852;2023-04-24T04:30:25;18.38;;;13.65;;
21727;SDS011;11026;50.560;17.852;2023-04-24T04:32:53;17.67;;;14.68;;
21727;SDS011;11026;50.560;17.852;2023-04-24T04:35:21;18.13;;;14.07;;
21727;SDS011;11026;50.560;17.852;2023-04-24T04:37:48;20.45;;;14.77;;
21727;SDS011;11026;50.560;17.852;2023-04-24T04:40:16;15.93;;;14.05;;
21727;SDS011;11026;50.560;17.852;2023-04-24T04:42:44;17.58;;;13.63;;
21727;SDS011;11026;50.560;17.852;2023-04-24T04:45:12;23.35;;;14.13;;
21727;SDS011;11026;50.560;17.852;2023-04-24T04:47:40;17.75;;;13.63;;
21727;SDS011;11026;50.560;17.852;2023-04-24T04:50:07;17.38;;;13.75;;
21727;SDS011;11026;50.560;17.852;2023-04-24T04:52:36;20.02;;;13.35;;
21727;SDS011;11026;50.560;17.852;2023-04-24T04:55:04;17.27;;;13.73;;
21727;SDS011;11026;50.560;17.852;2023-04-24T04:57:33;17.98;;;14.55;;
21727;SDS011;11026;50.560;17.852;2023-04-24T05:00:00;19.33;;;13.13;;
21727;SDS011;11026;50.560;17.852;2023-04-24T05:02:28;18.08;;;13.70;;
21727;SDS011;11026;50.560;17.852;2023-04-24T05:04:55;18.17;;;14.18;;
21727;SDS011;11026;50.560;17.852;2023-04-24T05:07:25;15.25;;;13.50;;
21727;SDS011;11026;50.560;17.852;2023-04-24T05:09:52;16.45;;;13.00;;
21727;SDS011;11026;50.560;17.852;2023-04-24T05:12:20;22.52;;;13.70;;
21727;SDS011;11026;50.560;17.852;2023-04-24T05:14:48;14.88;;;12.65;;
21727;SDS011;11026;50.560;17.852;2023-04-24T05:17:16;16.70;;;12.88;;
21727;SDS011;11026;50.560;17.852;2023-04-24T05:19:44;16.00;;;12.32;;
21727;SDS011;11026;50.560;17.852;2023-04-24T05:22:12;17.83;;;13.02;;
21727;SDS011;11026;50.560;17.852;2023-04-24T05:24:47;17.77;;;12.88;;
21727;SDS011;11026;50.560;17.852;2023-04-24T05:27:14;15.75;;;12.10;;
21727;SDS011;11026;50.560;17.852;2023-04-24T05:29:42;16.35;;;11.70;;
21727;SDS011;11026;50.560;17.852;2023-04-24T05:32:10;17.02;;;11.10;;
21727;SDS011;11026;50.560;17.852;2023-04-24T05:34:40;14.35;;;11.20;;
21727;SDS011;11026;50.560;17.852;2023-04-24T05:37:07;14.15;;;10.65;;
21727;SDS011;11026;50.560;17.852;2023-04-24T05:39:36;15.52;;;10.98;;
21727;SDS011;11026;50.560;17.852;2023-04-24T05:42:06;14.52;;;10.55;;
21727;SDS011;11026;50.560;17.852;2023-04-24T05:44:40;12.77;;;10.52;;
21727;SDS011;11026;50.560;17.852;2023-04-24T05:47:07;12.93;;;10.20;;
21727;SDS011;11026;50.560;17.852;2023-04-24T05:49:35;13.10;;;9.82;;
21727;SDS011;11026;50.560;17.852;2023-04-24T05:52:02;15.45;;;9.85;;
21727;SDS011;11026;50.560;17.852;2023-04-24T05:54:31;14.30;;;9.48;;
21727;SDS011;11026;50.560;17.852;2023-04-24T05:56:58;12.30;;;9.15;;
21727;SDS011;11026;50.560;17.852;2023-04-24T05:59:25;13.57;;;9.10;;
21727;SDS011;11026;50.560;17.852;2023-04-24T06:01:53;11.60;;;9.32;;
21727;SDS011;11026;50.560;17.852;2023-04-24T06:04:20;13.25;;;9.27;;
21727;SDS011;11026;50.560;17.852;2023-04-24T06:06:48;12.88;;;8.82;;
21727;SDS011;11026;50.560;17.852;2023-04-24T06:09:17;11.43;;;8.07;;
21727;SDS011;11026;50.560;17.852;2023-04-24T06:11:44;10.68;;;8.07;;
21727;SDS011;11026;50.560;17.852;2023-04-24T06:14:12;9.05;;;7.70;;
21727;SDS011;11026;50.560;17.852;2023-04-24T06:16:45;10.93;;;7.20;;
21727;SDS011;11026;50.560;17.852;2023-04-24T06:19:17;7.95;;;6.80;;
21727;SDS011;11026;50.560;17.852;2023-04-24T06:21:45;9.40;;;7.20;;
21727;SDS011;11026;50.560;17.852;2023-04-24T06:24:14;7.82;;;6.95;;
21727;SDS011;11026;50.560;17.852;2023-04-24T06:26:45;11.45;;;7.20;;
21727;SDS011;11026;50.560;17.852;2023-04-24T06:29:12;8.77;;;7.13;;
21727;SDS011;11026;50.560;17.852;2023-04-24T06:31:40;7.88;;;6.60;;
21727;SDS011;11026;50.560;17.852;2023-04-24T06:34:07;8.60;;;6.30;;
21727;SDS011;11026;50.560;17.852;2023-04-24T06:36:35;7.65;;;6.63;;
21727;SDS011;11026;50.560;17.852;2023-04-24T06:39:03;10.10;;;6.60;;
21727;SDS011;11026;50.560;17.852;2023-04-24T06:41:31;9.27;;;6.78;;
21727;SDS011;11026;50.560;17.852;2023-04-24T06:44:22;10.35;;;7.63;;
21727;SDS011;11026;50.560;17.852;2023-04-24T06:46:50;10.63;;;6.63;;
21727;SDS011;11026;50.560;17.852;2023-04-24T06:49:24;9.95;;;7.07;;
21727;SDS011;11026;50.560;17.852;2023-04-24T06:51:51;27.27;;;16.83;;
21727;SDS011;11026;50.560;17.852;2023-04-24T06:54:20;8.65;;;6.63;;
21727;SDS011;11026;50.560;17.852;2023-04-24T06:56:47;13.25;;;8.30;;
21727;SDS011;11026;50.560;17.852;2023-04-24T06:59:16;9.82;;;6.38;;
21727;SDS011;11026;50.560;17.852;2023-04-24T07:01:44;8.77;;;6.28;;
21727;SDS011;11026;50.560;17.852;2023-04-24T07:04:12;7.68;;;6.43;;
21727;SDS011;11026;50.560;17.852;2023-04-24T07:06:40;8.90;;;6.63;;
21727;SDS011;11026;50.560;17.852;2023-04-24T07:09:07;7.13;;;6.30;;
21727;SDS011;11026;50.560;17.852;2023-04-24T07:11:36;9.27;;;6.53;;
21727;SDS011;11026;50.560;17.852;2023-04-24T07:14:05;6.75;;;5.50;;
21727;SDS011;11026;50.560;17.852;2023-04-24T07:16:33;11.55;;;6.93;;
21727;SDS011;11026;50.560;17.852;2023-04-24T07:19:00;7.70;;;6.20;;
21727;SDS011;11026;50.560;17.852;2023-04-24T07:21:28;8.05;;;6.10;;
21727;SDS011;11026;50.560;17.852;2023-04-24T07:23:59;7.18;;;6.30;;
21727;SDS011;11026;50.560;17.852;2023-04-24T07:26:34;7.43;;;6.50;;
21727;SDS011;11026;50.560;17.852;2023-04-24T07:29:01;8.52;;;6.25;;
21727;SDS011;11026;50.560;17.852;2023-04-24T07:31:28;9.40;;;6.30;;
21727;SDS011;11026;50.560;17.852;2023-04-24T07:33:57;6.82;;;6.13;;
21727;SDS011;11026;50.560;17.852;2023-04-24T07:36:25;9.10;;;6.28;;
21727;SDS011;11026;50.560;17.852;2023-04-24T07:38:52;7.88;;;6.28;;
21727;SDS011;11026;50.560;17.852;2023-04-24T07:41:21;6.45;;;5.85;;
21727;SDS011;11026;50.560;17.852;2023-04-24T07:43:50;8.35;;;5.78;;
21727;SDS011;11026;50.560;17.852;2023-04-24T07:46:19;5.80;;;5.20;;
21727;SDS011;11026;50.560;17.852;2023-04-24T07:48:47;8.57;;;5.28;;
21727;SDS011;11026;50.560;17.852;2023-04-24T07:51:27;7.15;;;5.70;;
21727;SDS011;11026;50.560;17.852;2023-04-24T07:53:55;6.53;;;5.93;;
21727;SDS011;11026;50.560;17.852;2023-04-24T07:56:22;5.65;;;5.03;;
21727;SDS011;11026;50.560;17.852;2023-04-24T07:58:52;11.93;;;8.82;;
21727;SDS011;11026;50.560;17.852;2023-04-24T08:01:20;5.72;;;5.20;;
21727;SDS011;11026;50.560;17.852;2023-04-24T08:03:50;9.27;;;7.03;;
21727;SDS011;11026;50.560;17.852;2023-04-24T08:06:18;8.38;;;5.45;;
21727;SDS011;11026;50.560;17.852;2023-04-24T08:08:46;13.07;;;9.23;;
21727;SDS011;11026;50.560;17.852;2023-04-24T08:11:13;5.90;;;5.15;;
21727;SDS011;11026;50.560;17.852;2023-04-24T08:13:41;7.25;;;5.60;;
21727;SDS011;11026;50.560;17.852;2023-04-24T08:16:08;8.93;;;6.20;;
21727;SDS011;11026;50.560;17.852;2023-04-24T08:18:36;18.83;;;11.30;;
21727;SDS011;11026;50.560;17.852;2023-04-24T08:21:04;11.30;;;7.88;;
21727;SDS011;11026;50.560;17.852;2023-04-24T08:23:33;7.10;;;5.80;;
21727;SDS011;11026;50.560;17.852;2023-04-24T08:26:02;8.70;;;6.10;;
21727;SDS011;11026;50.560;17.852;2023-04-24T08:28:31;6.57;;;5.47;;
21727;SDS011;11026;50.560;17.852;2023-04-24T08:43:53;6.20;;;5.53;;
21727;SDS011;11026;50.560;17.852;2023-04-24T08:46:21;6.35;;;5.75;;
21727;SDS011;11026;50.560;17.852;2023-04-24T08:48:50;7.72;;;5.43;;
21727;SDS011;11026;50.560;17.852;2023-04-24T08:51:19;7.28;;;5.93;;
21727;SDS011;11026;50.560;17.852;2023-04-24T08:53:48;6.10;;;5.50;;
21727;SDS011;11026;50.560;17.852;2023-04-24T08:56:16;6.82;;;5.70;;
21727;SDS011;11026;50.560;17.852;2023-04-24T08:58:44;8.75;;;5.93;;
21727;SDS011;11026;50.560;17.852;2023-04-24T09:01:13;7.20;;;5.82;;
21727;SDS011;11026;50.560;17.852;2023-04-24T09:03:41;14.43;;;10.55;;
21727;SDS011;11026;50.560;17.852;2023-04-24T09:06:11;34.50;;;20.35;;
21727;SDS011;11026;50.560;17.852;2023-04-24T09:08:38;16.95;;;11.25;;
21727;SDS011;11026;50.560;17.852;2023-04-24T09:11:08;19.15;;;12.68;;
21727;SDS011;11026;50.560;17.852;2023-04-24T09:13:39;11.30;;;7.82;;
21727;SDS011;11026;50.560;17.852;2023-04-24T09:16:14;7.05;;;5.55;;
21727;SDS011;11026;50.560;17.852;2023-04-24T09:18:44;6.53;;;5.20;;
21727;SDS011;11026;50.560;17.852;2023-04-24T09:21:11;7.03;;;5.60;;
21727;SDS011;11026;50.560;17.852;2023-04-24T09:23:40;8.68;;;6.32;;
21727;SDS011;11026;50.560;17.852;2023-04-24T09:26:08;8.60;;;5.53;;
21727;SDS011;11026;50.560;17.852;2023-04-24T09:28:38;5.97;;;5.38;;
21727;SDS011;11026;50.560;17.852;2023-04-24T09:31:08;7.07;;;5.90;;
21727;SDS011;11026;50.560;17.852;2023-04-24T09:33:36;6.15;;;5.55;;
21727;SDS011;11026;50.560;17.852;2023-04-24T09:36:05;10.80;;;5.70;;
21727;SDS011;11026;50.560;17.852;2023-04-24T09:41:04;6.53;;;5.45;;
21727;SDS011;11026;50.560;17.852;2023-04-24T09:43:34;6.72;;;5.35;;
21727;SDS011;11026;50.560;17.852;2023-04-24T09:46:06;7.38;;;5.90;;
21727;SDS011;11026;50.560;17.852;2023-04-24T09:48:37;9.60;;;6.05;;
21727;SDS011;11026;50.560;17.852;2023-04-24T09:51:05;6.20;;;5.60;;
21727;SDS011;11026;50.560;17.852;2023-04-24T09:53:39;7.78;;;5.35;;
21727;SDS011;11026;50.560;17.852;2023-04-24T09:56:10;6.20;;;5.15;;
21727;SDS011;11026;50.560;17.852;2023-04-24T09:58:45;7.43;;;5.68;;
21727;SDS011;11026;50.560;17.852;2023-04-24T10:01:13;6.50;;;5.65;;
21727;SDS011;11026;50.560;17.852;2023-04-24T10:03:42;7.80;;;5.85;;
21727;SDS011;11026;50.560;17.852;2023-04-24T10:06:12;6.88;;;5.72;;
21727;SDS011;11026;50.560;17.852;2023-04-24T10:08:44;7.78;;;5.68;;
21727;SDS011;11026;50.560;17.852;2023-04-24T10:11:13;8.00;;;6.10;;
21727;SDS011;11026;50.560;17.852;2023-04-24T10:13:41;7.18;;;6.47;;
21727;SDS011;11026;50.560;17.852;2023-04-24T10:16:10;9.10;;;6.28;;
21727;SDS011;11026;50.560;17.852;2023-04-24T10:18:37;6.63;;;5.95;;
21727;SDS011;11026;50.560;17.852;2023-04-24T10:21:06;7.57;;;5.80;;
21727;SDS011;11026;50.560;17.852;2023-04-24T10:23:35;9.60;;;7.47;;
21727;SDS011;11026;50.560;17.852;2023-04-24T10:26:03;10.93;;;7.63;;
21727;SDS011;11026;50.560;17.852;2023-04-24T10:28:30;6.90;;;6.20;;
21727;SDS011;11026;50.560;17.852;2023-04-24T10:31:00;7.05;;;6.22;;
21727;SDS011;11026;50.560;17.852;2023-04-24T10:33:29;12.27;;;8.27;;
21727;SDS011;11026;50.560;17.852;2023-04-24T10:35:57;11.50;;;9.35;;
21727;SDS011;11026;50.560;17.852;2023-04-24T10:38:27;14.10;;;10.40;;
21727;SDS011;11026;50.560;17.852;2023-04-24T10:41:10;14.43;;;11.77;;
21727;SDS011;11026;50.560;17.852;2023-04-24T10:43:45;7.28;;;6.53;;
21727;SDS011;11026;50.560;17.852;2023-04-24T10:46:20;7.80;;;7.00;;
21727;SDS011;11026;50.560;17.852;2023-04-24T10:48:54;8.15;;;6.90;;
21727;SDS011;11026;50.560;17.852;2023-04-24T10:53:52;10.32;;;7.70;;
21727;SDS011;11026;50.560;17.852;2023-04-24T10:56:22;9.68;;;8.40;;
21727;SDS011;11026;50.560;17.852;2023-04-24T10:58:50;9.23;;;8.30;;
21727;SDS011;11026;50.560;17.852;2023-04-24T11:04:00;10.98;;;9.10;;
21727;SDS011;11026;50.560;17.852;2023-04-24T11:06:34;9.10;;;8.20;;
21727;SDS011;11026;50.560;17.852;2023-04-24T11:09:07;9.35;;;7.80;;
21727;SDS011;11026;50.560;17.852;2023-04-24T11:11:36;9.85;;;8.80;;
21727;SDS011;11026;50.560;17.852;2023-04-24T11:14:07;16.27;;;10.23;;
21727;SDS011;11026;50.560;17.852;2023-04-24T11:21:46;10.43;;;9.43;;
21727;SDS011;11026;50.560;17.852;2023-04-24T11:29:43;10.57;;;9.43;;
21727;SDS011;11026;50.560;17.852;2023-04-24T11:32:42;9.70;;;8.70;;
21727;SDS011;11026;50.560;17.852;2023-04-24T11:35:14;13.20;;;9.40;;
21727;SDS011;11026;50.560;17.852;2023-04-24T11:37:42;14.95;;;9.65;;
21727;SDS011;11026;50.560;17.852;2023-04-24T11:40:20;11.35;;;8.68;;
21727;SDS011;11026;50.560;17.852;2023-04-24T11:42:52;15.97;;;10.17;;
21727;SDS011;11026;50.560;17.852;2023-04-24T11:47:53;13.60;;;9.30;;
21727;SDS011;11026;50.560;17.852;2023-04-24T11:50:22;9.57;;;8.63;;
21727;SDS011;11026;50.560;17.852;2023-04-24T11:52:52;10.68;;;8.13;;
21727;SDS011;11026;50.560;17.852;2023-04-24T11:57:51;17.85;;;12.75;;
21727;SDS011;11026;50.560;17.852;2023-04-24T12:00:30;14.70;;;9.65;;
21727;SDS011;11026;50.560;17.852;2023-04-24T12:03:11;10.45;;;8.10;;
21727;SDS011;11026;50.560;17.852;2023-04-24T12:05:39;11.20;;;8.88;;
21727;SDS011;11026;50.560;17.852;2023-04-24T12:08:07;9.15;;;7.85;;
21727;SDS011;11026;50.560;17.852;2023-04-24T12:10:35;9.40;;;8.52;;
21727;SDS011;11026;50.560;17.852;2023-04-24T12:13:02;8.63;;;7.65;;
21727;SDS011;11026;50.560;17.852;2023-04-24T12:15:30;9.73;;;7.78;;
21727;SDS011;11026;50.560;17.852;2023-04-24T12:17:58;11.43;;;7.78;;
21727;SDS011;11026;50.560;17.852;2023-04-24T12:20:29;9.23;;;8.30;;
21727;SDS011;11026;50.560;17.852;2023-04-24T12:23:02;27.02;;;18.50;;
21727;SDS011;11026;50.560;17.852;2023-04-24T12:25:31;31.40;;;22.38;;
21727;SDS011;11026;50.560;17.852;2023-04-24T12:30:35;11.85;;;8.98;;
21727;SDS011;11026;50.560;17.852;2023-04-24T12:33:09;12.75;;;9.75;;
21727;SDS011;11026;50.560;17.852;2023-04-24T12:35:37;11.18;;;9.82;;
21727;SDS011;11026;50.560;17.852;2023-04-24T12:38:14;7.85;;;7.10;;
21727;SDS011;11026;50.560;17.852;2023-04-24T12:40:43;10.48;;;8.27;;
21727;SDS011;11026;50.560;17.852;2023-04-24T12:43:14;9.88;;;8.80;;
21727;SDS011;11026;50.560;17.852;2023-04-24T12:45:42;9.10;;;8.23;;
21727;SDS011;11026;50.560;17.852;2023-04-24T12:48:11;10.63;;;8.45;;
21727;SDS011;11026;50.560;17.852;2023-04-24T12:50:41;10.18;;;8.38;;
21727;SDS011;11026;50.560;17.852;2023-04-24T12:53:12;10.05;;;9.05;;
21727;SDS011;11026;50.560;17.852;2023-04-24T12:55:40;9.60;;;8.35;;
21727;SDS011;11026;50.560;17.852;2023-04-24T12:58:07;9.20;;;8.25;;
21727;SDS011;11026;50.560;17.852;2023-04-24T13:00:36;9.68;;;8.68;;
21727;SDS011;11026;50.560;17.852;2023-04-24T13:03:04;10.65;;;9.43;;
21727;SDS011;11026;50.560;17.852;2023-04-24T13:05:32;10.02;;;8.95;;
21727;SDS011;11026;50.560;17.852;2023-04-24T13:07:59;10.30;;;8.95;;
21727;SDS011;11026;50.560;17.852;2023-04-24T13:10:28;11.02;;;10.02;;
21727;SDS011;11026;50.560;17.852;2023-04-24T13:13:03;10.85;;;9.63;;
21727;SDS011;11026;50.560;17.852;2023-04-24T13:15:32;10.88;;;9.77;;
21727;SDS011;11026;50.560;17.852;2023-04-24T13:17:59;11.02;;;9.88;;
21727;SDS011;11026;50.560;17.852;2023-04-24T13:20:33;12.52;;;10.68;;
21727;SDS011;11026;50.560;17.852;2023-04-24T13:23:02;19.83;;;15.52;;
21727;SDS011;11026;50.560;17.852;2023-04-24T13:25:34;43.08;;;26.63;;
21727;SDS011;11026;50.560;17.852;2023-04-24T13:28:02;13.80;;;10.75;;
21727;SDS011;11026;50.560;17.852;2023-04-24T13:30:30;14.05;;;11.32;;
21727;SDS011;11026;50.560;17.852;2023-04-24T13:33:00;11.40;;;9.00;;
21727;SDS011;11026;50.560;17.852;2023-04-24T13:35:28;11.48;;;8.60;;
21727;SDS011;11026;50.560;17.852;2023-04-24T13:37:57;11.75;;;9.45;;
21727;SDS011;11026;50.560;17.852;2023-04-24T13:40:25;11.00;;;9.88;;
21727;SDS011;11026;50.560;17.852;2023-04-24T13:42:52;13.43;;;10.45;;
21727;SDS011;11026;50.560;17.852;2023-04-24T13:45:20;12.55;;;10.60;;
21727;SDS011;11026;50.560;17.852;2023-04-24T13:47:51;13.63;;;11.55;;
21727;SDS011;11026;50.560;17.852;2023-04-24T13:50:26;13.57;;;12.18;;
21727;SDS011;11026;50.560;17.852;2023-04-24T13:55:28;15.38;;;12.98;;
21727;SDS011;11026;50.560;17.852;2023-04-24T13:57:58;15.60;;;14.00;;
21727;SDS011;11026;50.560;17.852;2023-04-24T14:00:27;16.75;;;14.18;;
21727;SDS011;11026;50.560;17.852;2023-04-24T14:02:57;16.70;;;14.63;;
21727;SDS011;11026;50.560;17.852;2023-04-24T14:05:24;17.65;;;15.85;;
21727;SDS011;11026;50.560;17.852;2023-04-24T14:07:52;17.85;;;15.90;;
21727;SDS011;11026;50.560;17.852;2023-04-24T14:10:19;18.92;;;16.92;;
21727;SDS011;11026;50.560;17.852;2023-04-24T14:12:47;21.05;;;18.02;;
21727;SDS011;11026;50.560;17.852;2023-04-24T14:15:21;21.00;;;18.60;;
21727;SDS011;11026;50.560;17.852;2023-04-24T14:17:51;21.00;;;18.38;;
21727;SDS011;11026;50.560;17.852;2023-04-24T14:20:19;20.90;;;18.25;;
21727;SDS011;11026;50.560;17.852;2023-04-24T14:22:47;23.20;;;20.20;;
21727;SDS011;11026;50.560;17.852;2023-04-24T14:25:16;21.20;;;18.83;;
21727;SDS011;11026;50.560;17.852;2023-04-24T14:27:43;23.33;;;20.52;;
21727;SDS011;11026;50.560;17.852;2023-04-24T14:30:11;33.50;;;26.98;;
21727;SDS011;11026;50.560;17.852;2023-04-24T14:32:39;38.83;;;28.73;;
21727;SDS011;11026;50.560;17.852;2023-04-24T14:35:07;45.20;;;33.75;;
21727;SDS011;11026;50.560;17.852;2023-04-24T14:37:34;32.75;;;25.67;;
21727;SDS011;11026;50.560;17.852;2023-04-24T14:40:03;27.65;;;24.17;;
21727;SDS011;11026;50.560;17.852;2023-04-24T14:42:36;23.92;;;20.77;;
21727;SDS011;11026;50.560;17.852;2023-04-24T14:45:06;29.83;;;23.35;;
21727;SDS011;11026;50.560;17.852;2023-04-24T14:47:36;28.27;;;22.73;;
21727;SDS011;11026;50.560;17.852;2023-04-24T14:50:06;26.88;;;23.38;;
21727;SDS011;11026;50.560;17.852;2023-04-24T14:52:34;24.95;;;22.33;;
21727;SDS011;11026;50.560;17.852;2023-04-24T14:55:02;27.10;;;21.73;;
21727;SDS011;11026;50.560;17.852;2023-04-24T14:57:30;24.35;;;20.58;;
21727;SDS011;11026;50.560;17.852;2023-04-24T14:59:57;24.85;;;21.88;;
21727;SDS011;11026;50.560;17.852;2023-04-24T15:02:25;27.45;;;22.30;;
21727;SDS011;11026;50.560;17.852;2023-04-24T15:04:53;34.63;;;24.90;;
21727;SDS011;11026;50.560;17.852;2023-04-24T15:07:22;33.13;;;27.25;;
21727;SDS011;11026;50.560;17.852;2023-04-24T15:09:50;25.75;;;23.13;;
21727;SDS011;11026;50.560;17.852;2023-04-24T15:12:17;24.33;;;21.67;;
21727;SDS011;11026;50.560;17.852;2023-04-24T15:14:45;31.83;;;24.30;;
21727;SDS011;11026;50.560;17.852;2023-04-24T15:17:12;31.92;;;24.58;;